• Join FlightAware (Why Join?)
  • Login
  • US Flag 
06:44AM EDT


 

Airport Tracker/Info


-or-


 

Live Flight TrackerFlight Track Log ✈ KAP5 ✈ 23-Jun-2013 ✈ KOGS - KALB

Flight Track Log - Related Links

Times and Time Zones

All times are in EDT time to prevent confusion due to time zone crossing. See the KAP5 flight status page for this flight to view local times or setup timezone preferences in your user account.

Time Position Orientation Groundspeed Altitude Reporting Facility
EDT Latitude Longitude Course Direction KTS MPH feet Rate Location/Type
01:24PM 44.6286 -75.3631 71° East 160 184 3,100  Level Boston Center
01:25PM 44.6019 -75.3414 150° Southeast 140 161 4,000 840 Climbing Boston Center
01:26PM 44.5714 -75.3078 142° Southeast 134 154 4,800 600 Climbing Boston Center
01:27PM 44.5428 -75.2858 151° Southeast 128 147 5,300 540 Climbing Boston Center
01:28PM 44.5142 -75.2642 152° Southeast 123 142 5,900 540 Climbing Boston Center
01:29PM 44.7859 -75.0898 71° East  Level FlightAware Approximate
01:29PM 44.4878 -75.2425 150° Southeast 118 136 6,400  Level Boston Center
01:30PM 44.4592 -75.2208 152° Southeast 118 136 7,000 600 Climbing Boston Center
01:31PM 44.4306 -75.1903 143° Southeast 118 136 7,600 480 Climbing Boston Center
01:32PM 44.4019 -75.1717 155° Southeast 118 136 8,100 480 Climbing Boston Center
01:33PM 44.3672 -75.1408 148° Southeast 118 136 8,700 480 Climbing Boston Center
01:34PM 44.3386 -75.1164 149° Southeast 118 136 9,100 300 Climbing Boston Center
01:35PM 44.3039 -75.0886 150° Southeast 129 148 9,300 420 Climbing Boston Center
01:36PM 44.2692 -75.0553 145° Southeast 136 157 10,000 540 Climbing Boston Center
01:37PM 44.2364 -75.0306 152° Southeast 136 157 10,400 360 Climbing Boston Center
01:38PM 44.2033 -75.0119 158° South 136 157 10,800 300 Climbing Boston Center
01:39PM 44.1686 -74.9872 153° Southeast 136 157 11,000 60 Climbing Boston Center
01:40PM 44.1275 -74.9622 156° South 148 170 11,000  Level Boston Center
01:41PM 44.0844 -74.9200 145° Southeast 162 186 11,000  Level Boston Center
01:42PM 44.0417 -74.8806 146° Southeast 183 211 11,000 -60 Level Boston Center
01:43PM 43.9986 -74.8414 147° Southeast 183 211 10,900 -60 Descending Boston Center
01:44PM 43.9706 -74.7856 125° Southeast 183 211 10,900  Level Boston Center
01:45PM 43.9383 -74.7322 130° Southeast 183 211 11,000  Climbing Boston Center
01:46PM 43.8972 -74.7019 152° Southeast 178 205 11,000  Level Boston Center
01:47PM 43.8497 -74.6858 166° South 172 198 11,000  Level Boston Center
01:48PM 43.8081 -74.6783 173° South 166 191 11,000  Level Boston Center
01:49PM 43.7672 -74.6453 150° Southeast 161 185 11,000  Level Boston Center
01:50PM 43.7325 -74.5981 135° Southeast 166 191 11,100 -120 Climbing Boston Center
01:51PM 43.7064 -74.5511 128° Southeast 166 191 10,800 -120 Descending Boston Center
01:52PM 43.6992 -74.4819 98° East 159 183 10,900  Climbing Boston Center
01:53PM 43.6603 -74.4433 144° Southeast 159 183 10,900  Level Boston Center
01:54PM 43.6192 -74.4219 159° South 159 183 10,900  Level Boston Center
01:55PM 43.5778 -74.3947 155° Southeast 164 189 11,000  Climbing Boston Center
01:56PM 43.5325 -74.3703 159° South 169 194 11,000  Level Boston Center
01:57PM 43.4911 -74.3433 155° Southeast 169 194 11,000  Level Boston Center
01:58PM 43.4478 -74.3189 158° South 169 194 11,000 -60 Level Boston Center
01:59PM 43.4169 -74.3008 157° South 165 190 10,900 -60 Descending Boston Center
02:00PM 43.3631 -74.2736 160° South 163 188 10,900  Level Boston Center
02:01PM 43.3197 -74.2522 160° South 169 194 11,000  Climbing Boston Center
02:02PM 43.2783 -74.2311 160° South 169 194 11,000 -120 Level Boston Center
02:03PM 43.2331 -74.1983 152° Southeast 174 200 10,800 -420 Descending Boston Center
02:04PM 43.1856 -74.1572 148° Southeast 184 212 10,200 -600 Descending Boston Center
02:05PM 43.1511 -74.1078 134° Southeast 189 217 9,600 -840 Descending Boston Center
02:06PM 43.1161 -74.0669 140° Southeast 190 219 8,700 -1,080 Descending Boston Center
02:07PM 43.0775 -74.0006 129° Southeast 195 224 7,600 -1,080 Descending Boston Center
02:08PM 43.0406 -73.9600 141° Southeast 195 224 6,600 -1,080 Descending Boston Center
02:09PM 42.9933 -73.9075 141° Southeast 183 211 5,400 -1,080 Descending Boston Center
02:10PM 42.9586 -73.8558 133° Southeast 186 214 4,400 -960 Descending Boston Center
02:11PM 42.9256 -73.8181 140° Southeast 188 216 3,700 -960 Descending Boston Center
02:12PM 42.8589 -73.8108 175° South 186 214 2,500 -1,020 Descending Boston Center
02:13PM 42.8111 -73.8128 182° South 173 199 1,600 -1,020 Descending Boston Center
02:14PM 42.7672 -73.8061 174° South 146 168 500 -1,140 Descending Boston Center
02:16PM 42.7491 -73.8020 160° South  Level Estimated
02:23PM 42.7491 -73.8020 160° South  Level Estimated
02:24PM 42.7491 -73.8020 160° South  Level Estimated